Time;durP1;ratioP1;P1;durP2;ratioP2;P2;SDS_P1;SDS_P2;PMS_P1;PMS_P2;Temp;Humidity;BMP_temperature;BMP_pressure;BME280_temperature;BME280_humidity;BME280_pressure;Samples;Min_cycle;Max_cycle;Signal;HPM_P1;HPM_P2
2021/05/04 00:02:21;;;;;;;7.87;3.43;;;7.00;87.80;;;;;;5016714;28;20446;-75
2021/05/04 00:04:48;;;;;;;3.70;3.50;;;7.00;88.40;;;;;;5016667;28;20501;-75
2021/05/04 00:07:14;;;;;;;4.20;3.80;;;7.00;89.40;;;;;;5016479;28;20487;-75
2021/05/04 00:09:41;;;;;;;3.80;3.60;;;7.00;89.90;;;;;;5016319;28;20439;-75
2021/05/04 00:12:08;;;;;;;4.33;3.27;;;7.00;89.00;;;;;;5016519;28;20455;-75
2021/05/04 00:14:35;;;;;;;3.90;3.60;;;7.00;90.30;;;;;;5016478;28;20456;-75
2021/05/04 00:17:02;;;;;;;4.23;3.30;;;7.00;90.00;;;;;;5016078;28;20463;-75
2021/05/04 00:19:28;;;;;;;3.67;3.37;;;7.00;90.70;;;;;;5016396;28;20814;-75
2021/05/04 00:21:54;;;;;;;3.80;3.40;;;7.00;90.80;;;;;;5016136;28;20502;-80
2021/05/04 00:24:21;;;;;;;5.87;4.63;;;7.00;90.70;;;;;;5016037;28;20792;-78
2021/05/04 00:26:48;;;;;;;4.30;3.20;;;7.00;91.70;;;;;;5016101;28;20498;-77
2021/05/04 00:29:14;;;;;;;3.90;3.60;;;7.00;91.60;;;;;;5016275;28;20440;-77
2021/05/04 00:31:40;;;;;;;4.43;3.30;;;7.00;91.20;;;;;;5015846;28;20448;-77
2021/05/04 00:34:07;;;;;;;3.67;3.13;;;7.00;91.70;;;;;;5016087;28;20455;-77
2021/05/04 00:36:33;;;;;;;6.17;3.10;;;7.00;92.30;;;;;;5016018;28;20468;-80
2021/05/04 00:38:59;;;;;;;4.00;3.70;;;7.00;93.30;;;;;;5015664;28;20509;-81
2021/05/04 00:41:25;;;;;;;3.57;3.27;;;7.00;93.00;;;;;;5015996;28;20440;-81
2021/05/04 00:43:52;;;;;;;4.20;3.90;;;7.10;94.00;;;;;;5015936;28;20451;-81
2021/05/04 00:46:19;;;;;;;3.90;3.53;;;7.00;94.20;;;;;;5015506;28;21095;-80
2021/05/04 00:48:45;;;;;;;3.83;3.53;;;7.00;94.10;;;;;;5015584;28;20957;-78
2021/05/04 00:51:11;;;;;;;3.70;3.43;;;7.00;94.20;;;;;;5015838;28;20509;-78
2021/05/04 00:53:38;;;;;;;3.70;3.40;;;7.00;95.00;;;;;;5015702;28;20455;-78
2021/05/04 00:56:05;;;;;;;3.97;3.67;;;7.00;94.90;;;;;;5015727;28;20444;-78
2021/05/04 00:58:34;;;;;;;5.17;3.77;;;7.00;94.90;;;;;;5015608;28;20463;-78
2021/05/04 01:01:01;;;;;;;3.60;3.30;;;7.00;95.30;;;;;;5015601;28;20451;-78
2021/05/04 01:03:28;;;;;;;3.87;3.50;;;6.90;95.00;;;;;;5015524;28;20452;-78
2021/05/04 01:05:54;;;;;;;4.27;3.70;;;7.00;95.30;;;;;;5015434;28;20558;-78
2021/05/04 01:08:21;;;;;;;4.57;4.17;;;6.90;96.30;;;;;;5015121;28;20970;-78
2021/05/04 01:10:47;;;;;;;4.97;4.00;;;7.00;96.20;;;;;;5015279;28;20458;-75
2021/05/04 01:13:13;;;;;;;3.93;3.63;;;6.90;95.90;;;;;;5015382;28;20463;-75
2021/05/04 01:15:41;;;;;;;3.77;3.47;;;6.90;95.70;;;;;;5015318;28;20451;-75
2021/05/04 01:18:08;;;;;;;4.63;3.80;;;6.90;96.30;;;;;;5015217;28;20521;-75
2021/05/04 01:20:36;;;;;;;4.70;3.50;;;6.90;96.10;;;;;;5014918;28;20444;-76
2021/05/04 01:23:03;;;;;;;3.70;3.40;;;6.80;96.20;;;;;;5014845;28;20475;-75
2021/05/04 01:25:30;;;;;;;5.03;3.60;;;6.70;97.60;;;;;;5015083;28;20444;-75
2021/05/04 01:27:56;;;;;;;4.20;3.80;;;6.70;97.80;;;;;;5015027;28;20525;-75
2021/05/04 01:30:24;;;;;;;3.27;2.97;;;6.70;97.60;;;;;;5015091;28;20440;-76
2021/05/04 01:32:50;;;;;;;3.43;3.13;;;6.70;97.50;;;;;;5014881;28;20482;-75
2021/05/04 01:35:16;;;;;;;2.97;2.77;;;6.70;98.30;;;;;;5014668;28;20456;-75
2021/05/04 01:37:42;;;;;;;3.87;3.57;;;6.70;98.60;;;;;;5014848;28;20521;-75
2021/05/04 01:40:13;;;;;;;10.57;4.00;;;6.70;98.60;;;;;;5014864;28;20474;-76
2021/05/04 01:42:43;;;;;;;4.00;3.50;;;6.70;98.70;;;;;;5014827;28;20435;-75
2021/05/04 01:45:11;;;;;;;4.13;3.73;;;6.70;98.80;;;;;;5014817;28;20428;-75
2021/05/04 01:47:37;;;;;;;3.60;3.37;;;6.70;99.00;;;;;;5014290;28;20995;-75
2021/05/04 01:50:05;;;;;;;4.23;3.83;;;6.70;99.80;;;;;;5013978;28;20459;-75
2021/05/04 01:52:32;;;;;;;5.07;3.50;;;6.70;99.90;;;;;;5014663;28;20459;-76
2021/05/04 01:54:58;;;;;;;3.87;3.57;;;6.70;99.20;;;;;;5014289;28;20939;-76
2021/05/04 01:57:26;;;;;;;3.47;3.17;;;6.70;99.60;;;;;;5014787;28;20490;-75
2021/05/04 01:59:52;;;;;;;4.03;3.63;;;6.70;99.40;;;;;;5014526;28;20443;-75
2021/05/04 02:02:18;;;;;;;4.07;3.57;;;6.70;99.70;;;;;;5014491;28;20451;-75
2021/05/04 02:04:45;;;;;;;4.47;4.17;;;6.80;99.90;;;;;;5014451;28;20447;-80
2021/05/04 02:07:11;;;;;;;4.80;4.07;;;6.80;99.90;;;;;;5014249;28;20487;-80
2021/05/04 02:09:37;;;;;;;5.00;4.30;;;6.80;99.90;;;;;;5014355;28;20463;-80
2021/05/04 02:12:04;;;;;;;4.00;3.50;;;6.80;99.90;;;;;;5014338;28;20927;-80
2021/05/04 02:14:31;;;;;;;3.90;3.60;;;6.80;99.90;;;;;;5014270;28;20474;-81
2021/05/04 02:16:57;;;;;;;4.20;3.90;;;6.80;99.90;;;;;;5014149;28;20530;-80
2021/05/04 02:19:23;;;;;;;4.03;3.70;;;6.70;99.90;;;;;;5014243;28;20461;-81
2021/05/04 02:21:50;;;;;;;8.00;3.57;;;6.70;99.90;;;;;;5013911;28;20483;-80
2021/05/04 02:24:16;;;;;;;3.50;3.30;;;6.70;99.90;;;;;;5014141;28;20458;-81
2021/05/04 02:26:42;;;;;;;3.60;3.30;;;6.70;99.90;;;;;;5013974;28;20542;-80
2021/05/04 02:29:08;;;;;;;4.70;4.20;;;6.70;99.90;;;;;;5013744;28;21076;-80
2021/05/04 02:31:35;;;;;;;3.80;3.53;;;6.70;99.90;;;;;;5013991;28;20451;-80
2021/05/04 02:34:02;;;;;;;5.23;4.73;;;6.70;99.90;;;;;;5013725;28;20440;-80
2021/05/04 02:36:29;;;;;;;4.20;3.20;;;6.70;99.90;;;;;;5013593;28;20530;-76
2021/05/04 02:38:55;;;;;;;3.67;3.37;;;6.70;99.90;;;;;;5013636;28;20455;-75
2021/05/04 02:41:21;;;;;;;3.20;3.00;;;6.70;99.90;;;;;;5013583;28;20452;-75
2021/05/04 02:43:47;;;;;;;3.97;3.23;;;6.70;99.90;;;;;;5013834;28;20507;-75
2021/05/04 02:46:13;;;;;;;3.30;3.03;;;6.70;99.90;;;;;;5013675;28;20550;-75
2021/05/04 02:48:42;;;;;;;4.80;3.30;;;6.70;99.90;;;;;;5014120;28;20834;-76
2021/05/04 02:51:10;;;;;;;3.50;3.20;;;6.70;99.90;;;;;;5013458;28;20512;-76
2021/05/04 02:53:37;;;;;;;3.63;3.17;;;6.70;99.90;;;;;;5013709;28;20510;-76
2021/05/04 02:56:04;;;;;;;3.63;2.73;;;6.80;99.90;;;;;;5013385;28;20443;-76
2021/05/04 02:58:31;;;;;;;3.13;2.83;;;6.90;99.90;;;;;;5013622;28;20464;-77
2021/05/04 03:00:57;;;;;;;3.30;2.97;;;6.90;99.90;;;;;;5013491;28;20456;-77
2021/05/04 03:03:24;;;;;;;3.10;2.60;;;6.90;99.90;;;;;;5013356;28;20443;-77
2021/05/04 03:05:52;;;;;;;4.13;3.47;;;6.90;99.90;;;;;;5013207;28;20831;-77
2021/05/04 03:08:18;;;;;;;3.30;3.00;;;6.90;99.90;;;;;;5013463;28;20468;-77
2021/05/04 03:10:44;;;;;;;3.53;3.23;;;6.90;99.90;;;;;;5013579;28;20451;-77
2021/05/04 03:13:11;;;;;;;3.50;3.00;;;7.00;99.90;;;;;;5013538;28;20456;-77
2021/05/04 03:15:37;;;;;;;3.20;2.70;;;7.00;99.90;;;;;;5013497;28;20451;-77
2021/05/04 03:18:04;;;;;;;3.40;3.03;;;7.00;99.90;;;;;;5013384;28;20478;-78
2021/05/04 03:20:30;;;;;;;3.70;3.40;;;7.10;99.90;;;;;;5013389;28;20514;-75
2021/05/04 03:22:57;;;;;;;3.80;3.50;;;7.10;99.90;;;;;;5012935;28;20998;-75
2021/05/04 03:25:23;;;;;;;3.97;2.97;;;7.10;99.90;;;;;;5013422;28;20447;-75
2021/05/04 03:27:51;;;;;;;3.10;2.80;;;7.20;99.90;;;;;;5013263;28;20518;-75
2021/05/04 03:30:17;;;;;;;3.50;3.20;;;7.20;99.90;;;;;;5013057;28;20955;-75
2021/05/04 03:32:44;;;;;;;3.03;2.80;;;7.10;99.90;;;;;;5013054;28;20452;-76
2021/05/04 03:35:11;;;;;;;2.83;2.63;;;7.10;99.90;;;;;;5014182;28;20827;-78
2021/05/04 03:37:38;;;;;;;2.57;2.40;;;7.20;99.90;;;;;;5013512;28;20463;-77
2021/05/04 03:40:06;;;;;;;3.33;3.10;;;7.20;99.90;;;;;;5013268;28;20462;-77
2021/05/04 03:42:32;;;;;;;3.20;2.90;;;7.20;99.90;;;;;;5012956;28;20998;-77
2021/05/04 03:44:58;;;;;;;3.30;3.10;;;7.20;99.90;;;;;;5012897;28;20451;-77
2021/05/04 03:47:25;;;;;;;3.20;3.00;;;7.20;99.90;;;;;;5013102;28;20494;-78
2021/05/04 03:49:51;;;;;;;3.33;3.03;;;7.20;99.90;;;;;;5012871;28;20475;-78
2021/05/04 03:52:17;;;;;;;2.90;2.70;;;7.20;99.90;;;;;;5012879;28;20958;-75
2021/05/04 03:54:44;;;;;;;3.13;2.90;;;7.20;99.90;;;;;;5013139;28;20474;-75
2021/05/04 03:57:11;;;;;;;2.77;2.57;;;7.20;99.90;;;;;;5013070;28;20460;-75
2021/05/04 03:59:38;;;;;;;3.20;3.00;;;7.20;99.90;;;;;;5013038;28;20451;-75
2021/05/04 04:02:04;;;;;;;3.30;3.00;;;7.20;99.70;;;;;;5012650;28;20825;-75
2021/05/04 04:04:30;;;;;;;3.77;3.47;;;7.10;99.60;;;;;;5013066;28;20448;-75
2021/05/04 04:06:56;;;;;;;3.43;3.17;;;7.10;99.90;;;;;;5012907;28;20515;-75
2021/05/04 04:09:22;;;;;;;2.97;2.70;;;7.20;99.90;;;;;;5012742;28;20989;-75
2021/05/04 04:11:49;;;;;;;4.93;3.70;;;7.20;99.90;;;;;;5012998;28;20458;-75
2021/05/04 04:14:16;;;;;;;3.00;2.77;;;7.10;99.90;;;;;;5015675;28;20455;-75
2021/05/04 04:16:42;;;;;;;3.13;2.93;;;7.20;99.90;;;;;;5016368;28;20475;-75
2021/05/04 04:19:08;;;;;;;2.60;2.40;;;7.20;99.60;;;;;;5016420;28;20460;-75
2021/05/04 04:21:35;;;;;;;3.40;3.10;;;7.20;99.30;;;;;;5016154;28;20608;-75
2021/05/04 04:24:01;;;;;;;3.07;2.87;;;7.20;99.70;;;;;;5016380;28;20444;-75
2021/05/04 04:26:27;;;;;;;2.77;2.53;;;7.20;99.90;;;;;;5016124;28;20498;-75
2021/05/04 04:28:54;;;;;;;2.83;2.63;;;7.20;99.30;;;;;;5015971;28;20946;-75
2021/05/04 04:31:21;;;;;;;3.77;2.90;;;7.30;99.60;;;;;;5016216;28;20455;-75
2021/05/04 04:33:47;;;;;;;3.10;2.80;;;7.30;99.40;;;;;;5016173;28;20448;-75
2021/05/04 04:36:13;;;;;;;2.83;2.60;;;7.30;99.80;;;;;;5016063;28;20542;-75
2021/05/04 04:38:39;;;;;;;3.93;2.97;;;7.30;99.60;;;;;;5016044;28;20448;-76
2021/05/04 04:41:06;;;;;;;2.70;2.50;;;7.30;99.70;;;;;;5015741;28;20448;-75
2021/05/04 04:43:32;;;;;;;2.70;2.50;;;7.40;99.50;;;;;;5015983;28;20466;-76
2021/05/04 04:45:58;;;;;;;3.50;3.10;;;7.40;99.30;;;;;;5015567;28;20973;-75
2021/05/04 04:48:25;;;;;;;3.20;2.37;;;7.50;99.30;;;;;;5015791;28;20468;-75
2021/05/04 04:50:51;;;;;;;3.27;2.90;;;7.50;99.30;;;;;;5015878;28;20482;-75
2021/05/04 04:53:18;;;;;;;2.47;2.27;;;7.60;99.00;;;;;;5015628;28;20537;-75
2021/05/04 04:55:44;;;;;;;2.53;2.30;;;7.60;98.80;;;;;;5015771;28;20451;-75
2021/05/04 04:58:10;;;;;;;4.40;2.53;;;7.60;98.80;;;;;;5015654;28;20859;-76
2021/05/04 05:00:36;;;;;;;2.60;2.40;;;7.70;98.90;;;;;;5015599;28;20490;-75
2021/05/04 05:03:03;;;;;;;2.80;2.60;;;7.70;98.20;;;;;;5015374;28;20462;-76
2021/05/04 05:05:30;;;;;;;2.67;2.47;;;7.80;97.90;;;;;;5015546;28;20463;-75
2021/05/04 05:07:56;;;;;;;2.33;2.23;;;7.90;97.70;;;;;;5015039;28;20488;-75
2021/05/04 05:10:22;;;;;;;2.50;2.40;;;8.00;98.20;;;;;;5015432;28;20459;-76
2021/05/04 05:12:49;;;;;;;3.80;2.93;;;8.10;97.60;;;;;;5015089;28;20451;-76
2021/05/04 05:15:15;;;;;;;2.10;1.93;;;8.20;97.30;;;;;;5015352;28;20452;-76
2021/05/04 05:17:41;;;;;;;2.37;2.17;;;8.20;98.20;;;;;;5015243;28;20464;-75
2021/05/04 05:20:09;;;;;;;4.97;1.90;;;8.30;96.90;;;;;;5015223;28;20448;-76
2021/05/04 05:22:36;;;;;;;2.70;2.50;;;8.30;96.70;;;;;;5014884;28;20826;-76
2021/05/04 05:25:02;;;;;;;3.47;2.43;;;8.40;96.60;;;;;;5014123;28;20448;-75
2021/05/04 05:27:30;;;;;;;3.50;2.60;;;8.50;96.40;;;;;;5014958;28;20487;-76
2021/05/04 05:29:56;;;;;;;3.70;2.10;;;8.60;97.30;;;;;;5014758;28;20452;-75
2021/05/04 05:32:23;;;;;;;2.40;2.20;;;8.50;96.80;;;;;;5014709;28;20475;-76
2021/05/04 05:34:49;;;;;;;4.23;2.47;;;8.60;96.50;;;;;;5014698;28;20958;-77
2021/05/04 05:37:15;;;;;;;2.93;2.73;;;8.60;97.00;;;;;;5014860;28;20471;-77
2021/05/04 05:39:43;;;;;;;2.70;2.47;;;8.60;97.20;;;;;;5014811;28;20456;-78
2021/05/04 05:42:10;;;;;;;3.10;2.50;;;8.70;96.50;;;;;;5014535;28;20535;-78
2021/05/04 05:44:36;;;;;;;4.60;2.90;;;8.70;96.80;;;;;;5014779;28;20471;-77
2021/05/04 05:47:03;;;;;;;5.93;2.47;;;8.80;96.10;;;;;;5015618;28;20487;-76
2021/05/04 05:49:29;;;;;;;4.00;2.50;;;8.80;95.90;;;;;;5014739;28;20451;-76
2021/05/04 05:51:55;;;;;;;2.60;2.30;;;8.90;96.60;;;;;;5014402;28;20458;-75
2021/05/04 05:54:22;;;;;;;3.83;2.33;;;9.00;95.70;;;;;;5014672;28;20443;-75
2021/05/04 05:56:49;;;;;;;3.53;2.50;;;9.10;95.50;;;;;;5014495;28;20482;-76
2021/05/04 05:59:15;;;;;;;2.60;2.40;;;9.20;95.10;;;;;;5014239;28;20820;-76
2021/05/04 06:01:42;;;;;;;2.53;2.33;;;9.30;94.90;;;;;;5014504;28;20444;-76
2021/05/04 06:04:09;;;;;;;2.17;2.07;;;9.40;94.70;;;;;;5014148;28;20455;-76
2021/05/04 06:06:36;;;;;;;3.23;2.70;;;9.40;94.70;;;;;;5014329;28;20491;-76
2021/05/04 06:09:02;;;;;;;3.77;2.77;;;9.50;94.50;;;;;;5014137;28;20993;-76
2021/05/04 06:11:29;;;;;;;2.50;2.40;;;9.50;94.30;;;;;;5014345;28;20451;-76
2021/05/04 06:13:56;;;;;;;2.60;2.40;;;9.70;94.40;;;;;;5014328;28;20447;-76
2021/05/04 06:16:23;;;;;;;2.43;2.23;;;9.70;93.60;;;;;;5014205;28;20443;-76
2021/05/04 06:18:49;;;;;;;2.30;2.20;;;9.80;93.70;;;;;;5014186;28;20474;-76
2021/05/04 06:21:16;;;;;;;2.73;2.53;;;9.90;93.50;;;;;;5014203;28;20456;-76
2021/05/04 06:23:42;;;;;;;2.80;2.70;;;10.00;92.70;;;;;;5013784;28;20468;-75
2021/05/04 06:26:08;;;;;;;2.67;2.47;;;10.30;92.70;;;;;;5014580;28;20444;-76
2021/05/04 06:28:35;;;;;;;2.80;2.47;;;10.40;91.70;;;;;;5014014;28;20467;-78
2021/05/04 06:31:03;;;;;;;2.20;2.10;;;10.60;91.80;;;;;;5014065;28;20509;-79
2021/05/04 06:33:29;;;;;;;2.03;1.93;;;10.80;92.40;;;;;;5013990;28;20509;-78
2021/05/04 06:35:55;;;;;;;2.07;1.97;;;11.00;91.20;;;;;;5013619;28;20448;-78
2021/05/04 06:38:22;;;;;;;2.10;2.00;;;11.10;90.50;;;;;;5013860;28;20471;-78
2021/05/04 06:40:50;;;;;;;2.73;1.90;;;11.30;89.50;;;;;;5013609;28;20969;-78
2021/05/04 06:43:17;;;;;;;1.80;1.70;;;11.60;88.40;;;;;;5013864;28;20443;-78
2021/05/04 06:45:44;;;;;;;2.87;1.67;;;11.80;86.60;;;;;;5013816;28;20451;-78
2021/05/04 06:48:11;;;;;;;2.30;2.20;;;12.20;86.70;;;;;;5013365;28;21002;-78
2021/05/04 06:50:37;;;;;;;2.10;2.00;;;12.40;84.10;;;;;;5013744;28;20456;-78
2021/05/04 06:53:04;;;;;;;2.40;2.13;;;12.80;84.10;;;;;;5013648;28;20439;-82
2021/05/04 06:55:30;;;;;;;2.90;1.70;;;13.00;81.60;;;;;;5013689;28;20440;-82
2021/05/04 06:57:56;;;;;;;1.67;1.57;;;13.20;78.30;;;;;;5013378;28;20986;-82
2021/05/04 07:00:23;;;;;;;2.30;2.10;;;13.40;79.00;;;;;;5013393;28;20915;-81
2021/05/04 07:02:49;;;;;;;2.73;1.67;;;13.70;75.90;;;;;;5013700;28;20519;-82
2021/05/04 07:05:17;;;;;;;1.70;1.60;;;13.80;76.30;;;;;;5014226;28;20435;-75
2021/05/04 07:07:43;;;;;;;1.63;1.53;;;13.80;73.40;;;;;;5013485;28;20522;-76
2021/05/04 07:10:10;;;;;;;1.97;1.87;;;13.90;75.30;;;;;;5013659;28;20505;-76
2021/05/04 07:12:37;;;;;;;1.97;1.87;;;14.00;73.90;;;;;;5013587;28;20842;-76
2021/05/04 07:15:04;;;;;;;2.60;1.70;;;13.80;72.70;;;;;;5013557;28;20497;-76
2021/05/04 07:17:30;;;;;;;1.77;1.40;;;13.70;70.90;;;;;;5013423;28;20471;-76
2021/05/04 07:19:57;;;;;;;1.67;1.50;;;13.60;72.80;;;;;;5013472;28;20451;-76
2021/05/04 07:22:26;;;;;;;1.77;1.67;;;13.50;71.90;;;;;;5012825;28;21009;-76
2021/05/04 07:24:53;;;;;;;1.60;1.50;;;13.30;72.50;;;;;;5013441;28;20452;-76
2021/05/04 07:27:19;;;;;;;1.27;1.10;;;13.30;70.70;;;;;;5013215;28;20491;-76
2021/05/04 07:29:46;;;;;;;2.20;1.37;;;13.30;70.50;;;;;;5013358;28;20462;-76
2021/05/04 07:32:16;;;;;;;1.70;1.60;;;13.50;69.80;;;;;;5013001;28;20947;-76
2021/05/04 07:34:42;;;;;;;1.57;1.47;;;13.70;67.30;;;;;;5013046;28;20447;-77
2021/05/04 07:37:08;;;;;;;1.57;1.43;;;14.50;66.20;;;;;;5013226;28;20507;-77
2021/05/04 07:39:35;;;;;;;1.40;1.30;;;15.50;66.20;;;;;;5013291;28;20852;-77
2021/05/04 07:42:02;;;;;;;1.50;1.40;;;16.30;60.50;;;;;;5013224;28;20504;-76
2021/05/04 07:44:28;;;;;;;1.47;1.37;;;17.10;59.30;;;;;;5013207;28;20459;-77
2021/05/04 07:46:54;;;;;;;1.53;1.40;;;17.50;57.00;;;;;;5012765;28;20487;-76
2021/05/04 07:49:22;;;;;;;1.43;1.33;;;17.70;55.60;;;;;;5015840;28;20450;-77
2021/05/04 07:51:49;;;;;;;1.60;1.50;;;18.10;55.30;;;;;;5016940;28;20843;-77
2021/05/04 07:54:17;;;;;;;2.07;1.10;;;18.60;52.50;;;;;;5016886;28;20451;-77
2021/05/04 07:56:45;;;;;;;1.60;1.50;;;19.60;51.50;;;;;;5016840;28;20986;-77
2021/05/04 07:59:11;;;;;;;1.47;1.37;;;20.40;50.20;;;;;;5016790;28;20530;-77
2021/05/04 08:01:38;;;;;;;2.20;1.57;;;20.80;48.50;;;;;;5016662;28;20443;-77
2021/05/04 08:04:04;;;;;;;1.30;1.20;;;20.70;47.90;;;;;;5016748;28;20446;-77
2021/05/04 08:06:30;;;;;;;1.40;1.13;;;20.80;47.30;;;;;;5017013;28;20557;-77
2021/05/04 08:08:57;;;;;;;1.40;1.30;;;20.80;46.40;;;;;;5016623;28;20453;-77
2021/05/04 08:11:23;;;;;;;1.23;1.20;;;21.20;46.90;;;;;;5016316;28;20964;-77
2021/05/04 08:13:51;;;;;;;3.13;1.60;;;21.20;45.40;;;;;;5016548;28;20443;-77
2021/05/04 08:16:17;;;;;;;1.40;1.30;;;20.30;45.50;;;;;;5016449;28;20451;-78
2021/05/04 08:18:45;;;;;;;1.13;1.13;;;20.10;46.80;;;;;;5016490;28;20453;-77
2021/05/04 08:21:11;;;;;;;3.40;1.30;;;19.80;46.60;;;;;;5016460;28;20808;-77
2021/05/04 08:23:38;;;;;;;4.77;1.33;;;19.30;47.10;;;;;;5015923;28;20478;-77
2021/05/04 08:26:04;;;;;;;1.90;1.20;;;19.20;47.40;;;;;;5016032;28;20950;-77
2021/05/04 08:28:30;;;;;;;1.00;1.00;;;19.20;47.40;;;;;;5016160;28;20487;-77
2021/05/04 08:30:58;;;;;;;2.17;1.43;;;19.10;47.60;;;;;;5015948;28;20947;-77
2021/05/04 08:33:25;;;;;;;1.80;1.27;;;19.10;47.90;;;;;;5016181;28;20538;-77
2021/05/04 08:35:51;;;;;;;1.63;1.53;;;18.90;48.00;;;;;;5016108;28;20443;-77
2021/05/04 08:38:17;;;;;;;6.50;1.47;;;19.00;47.20;;;;;;5015935;28;20475;-76
2021/05/04 08:40:44;;;;;;;1.97;1.60;;;19.50;47.00;;;;;;5016018;28;20455;-77
2021/05/04 08:43:10;;;;;;;1.50;1.40;;;19.70;47.20;;;;;;5016018;28;20501;-77
2021/05/04 08:45:38;;;;;;;1.40;1.40;;;20.10;46.70;;;;;;5015914;28;20501;-77
2021/05/04 08:48:05;;;;;;;1.70;1.60;;;20.60;46.60;;;;;;5015494;28;20540;-77
2021/05/04 08:50:35;;;;;;;1.90;1.27;;;20.80;46.40;;;;;;5015863;28;20446;-78
2021/05/04 08:53:02;;;;;;;1.70;1.60;;;21.00;46.70;;;;;;5015856;28;20472;-77
2021/05/04 08:55:28;;;;;;;2.37;1.57;;;21.50;45.00;;;;;;5015780;28;20509;-77
2021/05/04 08:57:55;;;;;;;2.20;1.33;;;21.90;43.90;;;;;;5015691;28;20593;-77
2021/05/04 09:00:21;;;;;;;1.53;1.43;;;22.60;44.20;;;;;;5015328;28;20450;-76
2021/05/04 09:03:02;;;;;;;1.40;1.40;;;22.90;42.10;;;;;;5015666;28;20458;-77
2021/05/04 09:05:42;;;;;;;3.17;1.40;;;23.10;42.50;;;;;;5015648;28;20184;-77
2021/05/04 09:08:31;;;;;;;2.33;1.30;;;23.70;42.80;;;;;;5015413;28;20607;-76
2021/05/04 09:10:59;;;;;;;3.30;1.23;;;23.50;40.90;;;;;;5015529;28;20234;-79
2021/05/04 09:13:30;;;;;;;1.17;1.17;;;23.60;42.70;;;;;;5015310;28;20208;-79
2021/05/04 09:21:31;;;;;;;2.45;2.00;;;22.50;41.60;;;;;;5015188;28;20554;-79
2021/05/04 09:23:58;;;;;;;1.60;1.50;;;22.60;43.40;;;;;;5014813;28;20294;-79
2021/05/04 09:26:33;;;;;;;2.77;1.50;;;22.50;42.40;;;;;;5015071;28;20189;-80
2021/05/04 09:29:01;;;;;;;2.37;2.10;;;21.60;43.00;;;;;;5014865;28;20203;-80
2021/05/04 09:31:29;;;;;;;1.93;1.20;;;21.40;43.20;;;;;;5015171;28;20454;-79
2021/05/04 09:34:07;;;;;;;1.70;1.60;;;21.20;43.80;;;;;;5015132;28;20435;-80
2021/05/04 09:36:47;;;;;;;1.63;1.53;;;21.10;43.50;;;;;;5014760;28;20823;-80
2021/05/04 09:39:26;;;;;;;1.40;1.30;;;21.30;44.50;;;;;;5015424;28;20530;-79
2021/05/04 09:41:52;;;;;;;3.83;2.00;;;21.50;46.30;;;;;;5014956;28;20431;-79
2021/05/04 09:44:37;;;;;;;1.10;1.10;;;21.60;43.20;;;;;;5014939;28;20439;-79
2021/05/04 09:47:03;;;;;;;1.10;1.10;;;21.10;43.90;;;;;;5014680;28;20902;-80
2021/05/04 09:49:31;;;;;;;0.90;0.90;;;20.90;44.30;;;;;;5014858;28;20443;-79
2021/05/04 09:52:21;;;;;;;1.53;1.27;;;21.10;44.90;;;;;;5014504;28;20420;-80
2021/05/04 09:54:48;;;;;;;2.30;1.47;;;21.10;43.70;;;;;;5014409;28;20502;-77
2021/05/04 09:57:35;;;;;;;1.20;1.20;;;21.20;44.30;;;;;;5014313;28;20463;-77
2021/05/04 10:00:03;;;;;;;1.93;1.23;;;21.10;44.00;;;;;;5014563;28;20801;-77
2021/05/04 10:02:29;;;;;;;1.80;1.43;;;21.10;42.50;;;;;;5014543;28;20436;-77
2021/05/04 10:04:55;;;;;;;5.23;1.30;;;20.70;44.60;;;;;;5014323;28;20849;-78
2021/05/04 10:07:23;;;;;;;1.60;1.53;;;20.60;43.70;;;;;;5014149;28;20874;-77
2021/05/04 10:09:49;;;;;;;1.20;1.10;;;20.30;45.30;;;;;;5014484;28;20440;-80
2021/05/04 10:12:18;;;;;;;2.50;1.50;;;20.30;45.60;;;;;;5013861;28;20427;-77
2021/05/04 10:14:46;;;;;;;2.23;1.70;;;19.70;45.50;;;;;;5014052;28;20435;-76
2021/05/04 10:17:15;;;;;;;2.00;1.80;;;19.30;45.50;;;;;;5014184;28;20469;-77
2021/05/04 10:19:42;;;;;;;1.73;1.63;;;19.30;47.00;;;;;;5014327;28;20466;-77
2021/05/04 10:22:10;;;;;;;2.07;1.60;;;19.40;46.10;;;;;;5013696;28;20471;-76
2021/05/04 10:24:40;;;;;;;1.60;1.40;;;19.60;46.40;;;;;;5014206;28;20442;-77
2021/05/04 10:27:08;;;;;;;1.60;1.50;;;19.70;44.90;;;;;;5013700;28;20491;-77
2021/05/04 10:29:35;;;;;;;1.37;1.27;;;19.80;45.60;;;;;;5013802;28;20439;-77
2021/05/04 10:32:02;;;;;;;1.80;1.70;;;19.70;46.80;;;;;;5013761;28;20801;-77
2021/05/04 10:34:33;;;;;;;3.13;1.73;;;19.50;46.00;;;;;;5014052;28;20442;-77
2021/05/04 10:37:00;;;;;;;1.70;1.60;;;19.60;46.40;;;;;;5013928;28;20899;-77
2021/05/04 10:39:39;;;;;;;1.50;1.50;;;19.70;46.30;;;;;;5013981;28;20436;-77
2021/05/04 10:42:06;;;;;;;1.50;1.50;;;19.70;45.50;;;;;;5013949;28;20439;-77
2021/05/04 10:45:06;;;;;;;1.93;1.83;;;19.80;46.60;;;;;;5013982;28;20990;-77
2021/05/04 10:47:50;;;;;;;1.70;1.60;;;19.80;46.00;;;;;;5008914;28;20496;-77
2021/05/04 10:50:22;;;;;;;1.60;1.50;;;19.80;45.70;;;;;;5013859;28;20486;-79
2021/05/04 10:52:58;;;;;;;2.00;1.17;;;19.60;46.10;;;;;;5013767;28;20447;-77
2021/05/04 10:55:46;;;;;;;1.43;1.33;;;19.70;46.50;;;;;;5013742;28;20462;-77
2021/05/04 10:58:14;;;;;;;1.57;1.47;;;19.50;45.60;;;;;;5013264;28;20479;-77
2021/05/04 11:00:54;;;;;;;1.50;1.40;;;19.60;45.90;;;;;;5013785;28;20420;-76
2021/05/04 11:03:52;;;;;;;2.10;1.30;;;19.80;44.80;;;;;;5013700;28;20445;-77
2021/05/04 11:06:46;;;;;;;2.00;1.47;;;20.00;45.10;;;;;;5013547;28;20626;-77
2021/05/04 11:09:17;;;;;;;1.43;1.33;;;19.60;44.80;;;;;;5011214;28;20455;-77
2021/05/04 11:11:47;;;;;;;2.17;1.80;;;19.20;46.20;;;;;;5013768;28;20443;-77
2021/05/04 11:14:25;;;;;;;1.57;1.47;;;19.00;47.30;;;;;;5014098;28;20444;-77
2021/05/04 11:17:07;;;;;;;1.73;1.53;;;19.10;47.10;;;;;;5013383;28;20479;-76
2021/05/04 11:19:40;;;;;;;1.60;1.50;;;19.20;47.30;;;;;;5013175;28;20920;-76
2021/05/04 11:22:24;;;;;;;2.83;1.80;;;19.10;46.10;;;;;;5014350;28;20507;-76
2021/05/04 11:24:53;;;;;;;1.50;1.50;;;19.20;47.30;;;;;;5017192;28;20431;-76
2021/05/04 11:27:25;;;;;;;1.70;1.60;;;19.00;46.50;;;;;;5017024;28;20479;-77
2021/05/04 11:29:53;;;;;;;1.93;1.50;;;18.90;47.10;;;;;;5017388;28;20438;-75
2021/05/04 11:32:21;;;;;;;2.10;1.80;;;18.90;48.40;;;;;;5017512;28;20455;-77
2021/05/04 11:34:55;;;;;;;2.07;1.37;;;18.60;48.10;;;;;;5016995;28;20814;-76
2021/05/04 11:37:37;;;;;;;1.50;1.37;;;18.60;49.30;;;;;;5017147;28;20452;-77
2021/05/04 11:40:08;;;;;;;1.53;1.40;;;18.40;48.20;;;;;;5017244;28;20471;-77
2021/05/04 11:42:38;;;;;;;2.90;1.70;;;18.40;48.10;;;;;;5016852;28;20420;-77
2021/05/04 11:45:10;;;;;;;1.50;1.40;;;18.20;48.30;;;;;;5016983;28;20447;-77
2021/05/04 11:47:38;;;;;;;1.90;1.80;;;18.00;48.90;;;;;;5016889;28;20487;-77
2021/05/04 11:50:07;;;;;;;2.30;1.40;;;18.20;50.50;;;;;;5017056;28;20768;-77
2021/05/04 11:52:34;;;;;;;1.67;1.57;;;18.10;48.50;;;;;;5016650;28;20815;-77
2021/05/04 11:55:08;;;;;;;2.70;1.60;;;18.10;48.50;;;;;;5017233;28;20800;-77
2021/05/04 11:57:36;;;;;;;6.60;1.90;;;18.00;48.90;;;;;;5016836;28;20489;-77
2021/05/04 12:00:06;;;;;;;1.63;1.53;;;18.00;50.00;;;;;;5016556;28;20804;-77
2021/05/04 12:02:33;;;;;;;1.40;1.30;;;18.00;50.30;;;;;;5016820;28;20789;-77
2021/05/04 12:05:00;;;;;;;2.50;2.07;;;18.00;48.40;;;;;;5017066;28;20855;-76
2021/05/04 12:07:38;;;;;;;2.23;1.60;;;18.00;49.50;;;;;;5016523;28;20490;-77
2021/05/04 12:10:19;;;;;;;1.83;1.73;;;17.70;49.70;;;;;;5016718;28;20454;-76
2021/05/04 12:12:48;;;;;;;2.17;2.07;;;17.60;51.20;;;;;;5016653;28;20524;-76
2021/05/04 12:15:17;;;;;;;2.87;1.53;;;17.50;52.20;;;;;;5016428;28;20463;-77
2021/05/04 12:17:44;;;;;;;1.47;1.47;;;17.30;52.50;;;;;;5016109;28;20994;-76
2021/05/04 12:20:15;;;;;;;1.90;1.80;;;17.10;53.00;;;;;;5016110;28;20951;-77
2021/05/04 12:22:49;;;;;;;1.60;1.50;;;16.90;55.60;;;;;;5016158;28;20483;-76
2021/05/04 12:25:16;;;;;;;2.90;1.67;;;16.80;58.00;;;;;;5016427;28;20428;-76
2021/05/04 12:27:44;;;;;;;1.80;1.70;;;16.60;56.70;;;;;;5016129;28;20493;-77
2021/05/04 12:30:14;;;;;;;1.50;1.40;;;16.60;57.50;;;;;;5015945;28;20451;-76
2021/05/04 12:32:40;;;;;;;1.73;1.37;;;16.60;57.70;;;;;;5016182;28;20462;-76
2021/05/04 12:35:26;;;;;;;1.93;1.83;;;16.70;59.60;;;;;;5015549;28;20447;-76
2021/05/04 12:38:12;;;;;;;1.70;1.60;;;16.70;61.90;;;;;;5016037;28;20464;-76
2021/05/04 12:40:42;;;;;;;4.73;1.80;;;16.70;61.80;;;;;;5016114;28;20436;-77
2021/05/04 12:43:18;;;;;;;2.80;1.60;;;16.70;66.00;;;;;;5015750;28;20478;-77
2021/05/04 12:46:02;;;;;;;1.83;1.73;;;16.70;67.70;;;;;;5015968;28;20440;-76
2021/05/04 12:48:29;;;;;;;1.80;1.70;;;16.60;69.50;;;;;;5015806;28;20541;-76
2021/05/04 12:51:03;;;;;;;2.23;1.87;;;16.40;68.30;;;;;;5015846;28;20452;-76
2021/05/04 12:53:35;;;;;;;2.70;1.60;;;16.30;72.60;;;;;;5015550;28;20914;-76
2021/05/04 12:56:07;;;;;;;1.70;1.60;;;16.40;67.90;;;;;;5015828;28;20490;-77
2021/05/04 12:58:51;;;;;;;1.60;1.50;;;16.40;68.40;;;;;;5015412;28;20513;-76
2021/05/04 13:01:19;;;;;;;3.07;1.50;;;16.20;66.10;;;;;;5015730;28;20436;-76
2021/05/04 13:03:52;;;;;;;1.47;1.37;;;16.20;66.90;;;;;;5015635;28;20443;-77
2021/05/04 13:06:21;;;;;;;1.50;1.40;;;16.10;66.50;;;;;;5015767;28;20436;-77